Brunswick, New York
Current Conditions -  °F | °C
As of 11:51 AM on Thursday 30 Oct 2014 (Local Time) from KALB Reporting Station
Broken Clouds Broken Clouds  
Wind Chill: 53°   Ceiling: 3500
Heat Index: 53°   Visibility: 10mi
Dew Point: 37°   Wind: 14mph
Humidity: 55%   Direction: 300°WNW
Pressure: 29.99"   Gusts: 17mph
Location:  42.7478°N, 73.6049°W
Report Text: KALB 301551Z 30012G15KT 10SM BKN035 BKN044 12/03 A2999 RMK AO2 SLP156 T01170028
Loading
Personal Weather Stations






























Interactive Weather Map
Tropical Storm Tracking
New forecast layout! Learn more

10-Day Weather Forecast

Advertisements
Track Severe Weather on mobile